Observations for Trim Market St
| Time | AQI | Temp °C | Hum % | Pres Pa | CO μg/m³ | H₂S μg/m³ | NO μg/m³ | NO₂ μg/m³ | O₃ μg/m³ | SO₂ μg/m³ | PM1 μg/m³ | PM2.5 μg/m³ | PM10 μg/m³ |
|---|---|---|---|---|---|---|---|---|---|---|---|---|---|
| Thursday 9 July 2026 | |||||||||||||
| 18:15 | 1 | 31.6 | 40 | 65,366 | 0 | 20.32 | 0 | 15.8 | 7.12 | 0.7 | 0 | 2.35 | 2.59 |
| 18:14 | 1 | 31.6 | 40 | 65,362 | 0 | 23.82 | 0 | 15.9 | 14.37 | 1.83 | 0 | 2.88 | 3.17 |
| 18:12 | 1 | 31.8 | 40 | 65,347 | 0 | 25.28 | 0 | 15.97 | 11.11 | 1.87 | 0 | 2.36 | 2.6 |
| 18:09 | 1 | 31.9 | 40 | 65,458 | 0 | 29.63 | 0 | 19.97 | 12.91 | 2.11 | 0 | 2.9 | 3.19 |
| 18:06 | 1 | 32.1 | 39 | 65,552 | 0 | 30.51 | 0 | 16.39 | 13.89 | 2.45 | 0.71 | 3.46 | 3.81 |
| 18:04 | 1 | 32.2 | 39 | 65,633 | 0 | 33.36 | 0 | 19.8 | 19.38 | 1.75 | 0.71 | 2.94 | 3.24 |
| 18:00 | 1 | 32.5 | 38 | 65,839 | 0 | 30.2 | 0 | 17.28 | 9.28 | 2.76 | 0.71 | 2.97 | 3.26 |
| 17:58 | 1 | 32.6 | 38 | 65,900 | 0 | 32.86 | 0 | 19.78 | 9.75 | 2.88 | 0 | 2.44 | 2.69 |
| 17:51 | 1 | 33.1 | 37 | 66,117 | 0 | 31.92 | 0 | 17.76 | 13.33 | 3.4 | 0 | 3.02 | 3.32 |
| 17:50 | 1 | 33.2 | 37 | 66,143 | 0 | 33.69 | 0 | 25.45 | 0 | 2.96 | 1.43 | 5.16 | 5.68 |
| 17:49 | 1 | 33.3 | 36 | 66,147 | 0 | 35.06 | 0 | 17.84 | 9.02 | 4.54 | 0.71 | 3.57 | 3.92 |
| 17:48 | 1 | 33.4 | 36 | 66,175 | 0 | 34.17 | 0 | 17.22 | 12.64 | 4.67 | 1.43 | 4.64 | 5.1 |
| 17:47 | 1 | 33.5 | 36 | 66,186 | 0 | 35.48 | 0 | 18.82 | 13.03 | 4.12 | 0 | 2.51 | 2.76 |
| 17:46 | 1 | 33.6 | 36 | 66,233 | 0 | 37.47 | 0 | 21.71 | 4.72 | 4.08 | 0.71 | 3.59 | 3.95 |
| 17:45 | 1 | 33.6 | 36 | 66,262 | 0 | 37.09 | 0 | 37.13 | 0 | 3.25 | 0.71 | 3.59 | 3.95 |
| 17:44 | 1 | 33.7 | 36 | 66,268 | 0 | 32.05 | 0 | 15.01 | 9.21 | 4.65 | 0 | 3.06 | 3.37 |
| 17:43 | 1 | 33.8 | 36 | 66,268 | 0 | 34.25 | 0 | 24.5 | 5.05 | 2.63 | 0 | 2.53 | 2.78 |
| 17:42 | 1 | 33.9 | 36 | 66,301 | 0 | 36.54 | 0 | 21.39 | 10.52 | 4.61 | 0.71 | 3.07 | 3.38 |
| 17:41 | 1 | 34 | 35 | 66,311 | 0 | 37.07 | 0 | 23.7 | 3.02 | 4.94 | 0 | 3.09 | 3.4 |
| 17:40 | 1 | 34.2 | 35 | 66,351 | 0 | 34.83 | 0 | 15.86 | 7.71 | 4.92 | 0 | 3.09 | 3.4 |